Terminal Aerodrome Forecast
Issued by NWS

Home | Current Version | Previous Version | Text Only | Print | Product List | Glossary On
Versions: 1 2 3 4 5 6 7 8 9 10 11 12 13 14 15 16 17 18 19
000
FTUS42 KTAE 301729
TAFECP
TAF
KECP 301729Z 3018/0118 22011KT P6SM VCTS SCT025CB
      TEMPO 3019/3023 VRB15G25KT 3SM TSRA BKN025CB BKN100
     FM302300 25011KT P6SM SCT040 BKN250
     FM010400 18005KT P6SM FEW200
     FM011400 24009KT P6SM VCTS SCT030CB=

USA.gov is the U.S. government's official web portal to all federal, state and local government web resources and services.